Time;durP1;ratioP1;P1;durP2;ratioP2;P2;SDS_P1;SDS_P2;PMS_P1;PMS_P2;Temp;Humidity;BMP_temperature;BMP_pressure;BME280_temperature;BME280_humidity;BME280_pressure;Samples;Min_cycle;Max_cycle;Signal;HPM_P1;HPM_P2
2022/08/26 00:04:26;;;;;;;5.25;2.97;;;;;;;19.86;64.96;92500.06;5073040;28;20043;-75
2022/08/26 00:10:26;;;;;;;5.50;3.00;;;;;;;19.76;64.98;92502.13;5072005;28;20482;-76
2022/08/26 00:12:51;;;;;;;7.03;2.90;;;;;;;19.74;65.33;92504.34;5072710;28;20035;-76
2022/08/26 00:18:40;;;;;;;7.20;2.95;;;;;;;19.66;65.18;92497.28;5072489;28;20512;-75
2022/08/26 00:21:08;;;;;;;4.38;2.85;;;;;;;19.62;65.60;92491.13;5072597;28;20124;-76
2022/08/26 00:27:00;;;;;;;6.40;2.90;;;;;;;19.58;65.48;92486.84;5070951;28;20437;-75
2022/08/26 00:29:26;;;;;;;7.38;3.22;;;;;;;19.55;65.69;92483.00;5087914;28;20041;-76
2022/08/26 00:35:18;;;;;;;6.53;2.90;;;;;;;19.46;66.87;92495.66;5072505;28;20071;-75
2022/08/26 00:37:43;;;;;;;5.55;3.05;;;;;;;19.44;66.84;92489.91;5085796;28;20071;-76
2022/08/26 00:40:13;;;;;;;6.35;3.10;;;;;;;19.42;66.64;92492.91;5072350;28;20051;-75
2022/08/26 00:42:39;;;;;;;6.65;2.97;;;;;;;19.39;66.75;92490.16;5072401;28;20035;-75
2022/08/26 00:45:05;;;;;;;7.03;2.97;;;;;;;19.38;66.93;92493.91;5072682;28;20021;-77
2022/08/26 00:51:10;;;;;;;6.28;3.28;;;;;;;19.32;67.21;92486.22;5070917;28;20033;-76
2022/08/26 00:53:58;;;;;;;5.33;3.03;;;;;;;19.27;67.74;92483.81;5087903;28;20037;-77
2022/08/26 00:56:30;;;;;;;5.95;3.00;;;;;;;19.24;67.62;92487.13;5073024;28;20314;-76
2022/08/26 00:58:59;;;;;;;6.00;3.30;;;;;;;19.20;67.98;92485.50;5074546;28;20056;-77
2022/08/26 01:01:44;;;;;;;6.35;2.95;;;;;;;19.17;67.96;92486.19;5075825;28;20020;-76
2022/08/26 01:04:12;;;;;;;6.72;3.17;;;;;;;19.15;67.67;92483.84;5075827;28;20098;-76
2022/08/26 01:06:38;;;;;;;7.72;3.08;;;;;;;19.14;67.25;92490.28;5075629;28;20040;-76
2022/08/26 01:13:01;;;;;;;6.47;3.17;;;;;;;19.12;67.87;92480.00;5075907;28;20507;-76
2022/08/26 01:15:34;;;;;;;5.85;3.28;;;;;;;19.09;68.18;92479.91;5075661;28;20506;-76
2022/08/26 01:18:02;;;;;;;5.53;3.38;;;;;;;19.08;68.14;92481.03;5075568;28;20033;-76
2022/08/26 01:27:32;;;;;;;6.25;3.40;;;;;;;18.96;68.89;92491.66;5074044;28;20040;-76
2022/08/26 01:30:00;;;;;;;5.32;3.08;;;;;;;18.93;69.05;92488.59;5074028;28;20123;-76
2022/08/26 01:32:27;;;;;;;4.88;3.03;;;;;;;18.92;69.15;92489.69;5073813;28;20033;-76
2022/08/26 01:38:46;;;;;;;7.63;3.03;;;;;;;18.87;69.24;92484.66;5072205;28;20083;-76
2022/08/26 01:41:13;;;;;;;6.30;3.10;;;;;;;18.88;69.30;92488.06;5073941;28;20064;-76
2022/08/26 01:43:43;;;;;;;5.57;3.03;;;;;;;18.86;69.06;92485.75;5074840;28;20078;-76
2022/08/26 01:46:10;;;;;;;4.68;2.90;;;;;;;18.85;69.42;92486.88;5074787;28;20075;-76
2022/08/26 01:52:04;;;;;;;6.97;3.10;;;;;;;18.79;68.99;92480.25;5074878;28;20489;-75
2022/08/26 01:54:31;;;;;;;6.35;2.97;;;;;;;18.78;69.13;92491.97;5074791;28;20035;-75
2022/08/26 02:00:24;;;;;;;5.53;3.17;;;;;;;18.76;69.21;92494.16;5074526;28;20033;-76
2022/08/26 02:09:37;;;;;;;4.38;2.80;;;;;;;18.71;68.91;92491.72;5073193;28;20029;-76
2022/08/26 02:12:04;;;;;;;5.95;3.03;;;;;;;18.75;68.79;92491.84;5073132;28;20056;-76
2022/08/26 02:14:37;;;;;;;4.45;2.70;;;;;;;18.72;69.20;92488.75;5072979;28;20033;-76
2022/08/26 02:17:05;;;;;;;7.50;2.97;;;;;;;18.68;69.11;92477.25;5073896;28;20043;-76
2022/08/26 02:19:34;;;;;;;4.97;2.97;;;;;;;18.70;69.27;92490.97;5072765;28;20028;-76
2022/08/26 02:22:40;;;;;;;5.30;2.85;;;;;;;18.71;69.35;92491.72;5074105;28;20036;-76
2022/08/26 02:25:30;;;;;;;5.30;3.15;;;;;;;18.70;69.44;92484.88;5073917;28;20032;-76
2022/08/26 02:27:56;;;;;;;5.97;3.00;;;;;;;18.69;69.26;92478.06;5089216;28;20036;-76
2022/08/26 02:30:44;;;;;;;4.80;2.90;;;;;;;18.67;69.44;92478.38;5073963;28;20078;-76
2022/08/26 02:33:10;;;;;;;5.13;2.90;;;;;;;18.66;69.03;92484.78;5073871;28;20101;-76
2022/08/26 02:35:36;;;;;;;8.85;3.67;;;;;;;18.67;69.32;92475.72;5073643;28;20037;-76
2022/08/26 02:38:05;;;;;;;9.68;3.20;;;;;;;18.66;69.10;92473.41;5073339;28;20109;-76
2022/08/26 02:40:36;;;;;;;6.75;3.10;;;;;;;18.64;69.69;92481.72;5073736;28;20036;-76
2022/08/26 02:43:03;;;;;;;8.07;3.00;;;;;;;18.61;70.16;92465.69;5074175;28;20131;-76
2022/08/26 02:45:29;;;;;;;7.25;3.17;;;;;;;18.60;70.26;92474.75;5073932;28;20542;-76
2022/08/26 02:47:57;;;;;;;6.78;3.08;;;;;;;18.52;70.39;92461.28;5073866;28;20044;-76
2022/08/26 02:50:24;;;;;;;5.80;3.15;;;;;;;18.56;70.09;92464.06;5074035;28;20075;-76
2022/08/26 02:52:50;;;;;;;4.97;2.90;;;;;;;18.56;70.72;92458.00;5074001;28;20033;-76
2022/08/26 02:59:11;;;;;;;6.97;3.25;;;;;;;18.51;70.57;92457.13;5073454;28;20135;-75
2022/08/26 03:05:50;;;;;;;6.18;3.25;;;;;;;18.48;70.01;92455.13;5073757;28;20571;-76
2022/08/26 03:08:36;;;;;;;6.85;3.10;;;;;;;18.46;71.22;92449.41;5073276;28;20049;-76
2022/08/26 03:11:01;;;;;;;5.93;3.22;;;;;;;18.44;71.07;92451.63;5073306;28;20040;-76
2022/08/26 03:13:27;;;;;;;7.35;3.47;;;;;;;18.44;71.52;92446.31;5072311;28;20032;-76
2022/08/26 03:16:12;;;;;;;5.85;3.45;;;;;;;18.43;71.80;92444.75;5073102;28;20109;-76
2022/08/26 03:18:38;;;;;;;9.38;3.08;;;;;;;18.41;71.70;92446.19;5073145;28;20068;-76
2022/08/26 03:21:13;;;;;;;8.05;4.65;;;;;;;18.35;71.63;92443.03;5073142;28;20555;-76
2022/08/26 03:24:16;;;;;;;5.53;3.20;;;;;;;18.26;71.99;92440.50;5071922;28;20107;-76
2022/08/26 03:26:43;;;;;;;6.75;3.10;;;;;;;18.29;72.24;92439.81;5072906;28;20124;-76
2022/08/26 03:31:56;;;;;;;6.00;3.40;;;;;;;18.26;71.99;92434.41;5072937;28;20090;-76
2022/08/26 03:34:22;;;;;;;10.63;3.60;;;;;;;18.25;72.08;92430.22;5073141;28;20036;-75
2022/08/26 03:37:07;;;;;;;8.32;3.55;;;;;;;18.24;72.80;92434.00;5071519;28;20429;-76
2022/08/26 03:39:33;;;;;;;6.05;3.10;;;;;;;18.19;72.63;92423.63;5071454;28;20187;-76
2022/08/26 03:41:59;;;;;;;7.85;3.70;;;;;;;18.18;72.61;92432.69;5072892;28;20060;-76
2022/08/26 03:45:02;;;;;;;5.57;3.30;;;;;;;18.20;72.55;92430.47;5072866;28;20048;-76
2022/08/26 03:47:27;;;;;;;5.57;3.28;;;;;;;18.21;72.46;92432.00;5071555;28;20032;-76
2022/08/26 03:49:53;;;;;;;5.93;3.42;;;;;;;18.19;72.85;92426.25;5071591;28;20041;-76
2022/08/26 03:52:39;;;;;;;6.03;3.40;;;;;;;18.18;72.25;92427.38;5072791;28;20120;-75
2022/08/26 03:55:06;;;;;;;7.80;3.20;;;;;;;18.16;72.48;92426.94;5072816;28;20028;-76
2022/08/26 03:57:32;;;;;;;5.50;3.20;;;;;;;18.16;72.48;92432.25;5072783;28;20036;-75
2022/08/26 04:03:57;;;;;;;8.48;3.58;;;;;;;18.12;72.98;92426.06;5072988;28;20071;-76
2022/08/26 04:06:42;;;;;;;8.32;3.60;;;;;;;18.10;72.68;92426.38;5072797;28;20462;-76
2022/08/26 04:09:12;;;;;;;4.78;3.17;;;;;;;18.08;72.96;92420.66;5072440;28;20036;-76
2022/08/26 04:11:41;;;;;;;9.40;3.80;;;;;;;18.09;72.69;92424.84;5071634;28;20028;-76
2022/08/26 04:14:13;;;;;;;10.60;3.47;;;;;;;18.08;73.25;92426.75;5071934;28;20028;-76
2022/08/26 04:16:40;;;;;;;7.03;3.22;;;;;;;18.06;73.43;92430.81;5072384;28;20131;-76
2022/08/26 04:22:41;;;;;;;5.65;3.42;;;;;;;18.02;73.82;92437.88;5071222;28;20036;-76
2022/08/26 04:25:08;;;;;;;5.63;3.17;;;;;;;17.99;74.19;92430.59;5072486;28;20375;-76
2022/08/26 04:27:56;;;;;;;5.20;3.47;;;;;;;17.99;73.59;92441.19;5072090;28;20032;-76
2022/08/26 04:30:22;;;;;;;7.20;3.50;;;;;;;17.98;73.67;92432.47;5072514;28;20127;-76
2022/08/26 04:32:48;;;;;;;7.80;3.30;;;;;;;17.98;73.62;92437.00;5075569;28;20116;-76
2022/08/26 04:38:37;;;;;;;7.20;3.50;;;;;;;17.94;73.40;92426.28;5075069;28;20044;-76
2022/08/26 04:41:06;;;;;;;7.00;3.53;;;;;;;17.99;73.55;92434.03;5076559;28;20519;-76
2022/08/26 04:43:32;;;;;;;9.68;3.70;;;;;;;17.97;73.80;92425.66;5075498;28;20036;-77
2022/08/26 04:46:03;;;;;;;6.03;3.58;;;;;;;18.01;73.72;92428.38;5055822;28;20032;-78
2022/08/26 04:48:30;;;;;;;6.70;3.47;;;;;;;18.01;74.26;92431.03;5068366;28;20028;-77
2022/08/26 04:50:55;;;;;;;6.93;3.30;;;;;;;18.02;73.92;92429.94;5073416;28;20168;-76
2022/08/26 04:53:21;;;;;;;8.40;3.33;;;;;;;18.04;74.25;92422.44;5070385;28;20063;-77
2022/08/26 04:55:48;;;;;;;6.60;3.45;;;;;;;18.07;74.65;92424.41;5058763;28;20044;-77
2022/08/26 04:58:16;;;;;;;9.60;3.55;;;;;;;18.13;74.53;92422.31;5062350;28;20497;-77
2022/08/26 05:00:43;;;;;;;8.82;3.55;;;;;;;18.14;75.01;92426.50;5055538;28;20184;-77
2022/08/26 05:03:09;;;;;;;8.63;3.38;;;;;;;18.16;74.75;92429.59;5052852;28;20136;-77
2022/08/26 05:05:37;;;;;;;7.90;3.60;;;;;;;18.19;74.70;92428.91;5054016;28;20112;-76
2022/08/26 05:08:03;;;;;;;6.00;3.10;;;;;;;18.22;74.49;92423.72;5061811;28;20071;-77
2022/08/26 05:10:28;;;;;;;7.93;3.20;;;;;;;18.29;74.01;92423.94;5055978;28;20051;-77
2022/08/26 05:12:54;;;;;;;8.02;3.47;;;;;;;18.37;73.91;92421.47;5073490;28;20036;-77
2022/08/26 05:15:19;;;;;;;5.60;3.42;;;;;;;18.44;73.87;92422.47;5073402;28;20036;-76
2022/08/26 05:17:45;;;;;;;5.32;3.40;;;;;;;18.52;73.86;92421.53;5070792;28;20033;-77
2022/08/26 05:20:10;;;;;;;12.52;3.55;;;;;;;18.59;73.56;92406.94;5052444;28;20041;-77
2022/08/26 05:22:36;;;;;;;5.47;3.40;;;;;;;18.69;73.59;92409.88;5053347;28;20028;-77
2022/08/26 05:25:01;;;;;;;6.47;3.70;;;;;;;18.78;72.93;92416.94;5053408;28;20064;-76
2022/08/26 05:27:27;;;;;;;5.88;3.80;;;;;;;18.88;72.54;92419.88;5053331;28;20036;-76
2022/08/26 05:29:56;;;;;;;5.43;3.35;;;;;;;18.96;72.39;92410.25;5051852;28;20553;-77
2022/08/26 05:32:21;;;;;;;5.80;3.42;;;;;;;19.12;72.18;92426.19;5051719;28;20041;-77
2022/08/26 05:34:47;;;;;;;5.60;3.58;;;;;;;19.22;72.21;92417.72;5053091;28;20114;-77
2022/08/26 05:37:12;;;;;;;5.75;3.58;;;;;;;19.36;72.42;92419.94;5051711;28;20029;-77
2022/08/26 05:39:38;;;;;;;5.57;3.33;;;;;;;19.48;72.13;92421.75;5059844;28;20048;-77
2022/08/26 05:42:04;;;;;;;7.43;3.53;;;;;;;19.61;71.72;92417.91;5060633;28;20398;-77
2022/08/26 05:44:30;;;;;;;5.50;3.17;;;;;;;19.76;71.23;92427.00;5052948;28;20460;-77
2022/08/26 05:46:55;;;;;;;5.53;3.47;;;;;;;19.89;70.79;92427.66;5051885;28;20076;-77
2022/08/26 05:49:21;;;;;;;12.07;3.72;;;;;;;20.02;70.64;92428.31;5057058;28;20029;-77
2022/08/26 05:51:46;;;;;;;9.57;3.33;;;;;;;20.17;69.85;92433.63;5069943;28;20081;-77
2022/08/26 05:54:13;;;;;;;4.50;2.90;;;;;;;20.32;69.59;92428.59;5056787;28;20155;-77
2022/08/26 05:56:39;;;;;;;8.25;3.22;;;;;;;20.49;68.83;92438.06;5053239;28;20609;-77
2022/08/26 05:59:05;;;;;;;7.43;3.20;;;;;;;20.63;68.36;92437.63;5073067;28;20029;-78
2022/08/26 06:01:32;;;;;;;5.85;3.30;;;;;;;20.68;68.37;92432.03;5077132;28;20040;-78
2022/08/26 06:03:59;;;;;;;7.05;3.55;;;;;;;20.70;68.04;92435.09;5074642;28;20021;-78
2022/08/26 06:06:29;;;;;;;12.00;3.70;;;;;;;20.70;68.03;92435.88;5074695;28;20071;-78
2022/08/26 06:08:57;;;;;;;9.80;3.75;;;;;;;20.72;67.78;92441.59;5067472;28;20041;-78
2022/08/26 06:11:25;;;;;;;10.43;3.70;;;;;;;20.70;67.79;92445.75;5059284;28;20457;-76
2022/08/26 06:13:57;;;;;;;5.70;3.60;;;;;;;20.70;67.77;92435.09;5062053;28;20063;-79
2022/08/26 06:16:23;;;;;;;;;;;;;;;20.78;67.92;92442.09;5063152;28;20054;-79
2022/08/26 06:18:51;;;;;;;6.28;3.20;;;;;;;20.93;67.36;92443.91;5065570;28;19948;-76
2022/08/26 06:21:27;;;;;;;6.43;3.30;;;;;;;21.15;66.89;92433.66;5073568;28;20375;-77
2022/08/26 06:26:51;;;;;;;5.57;3.20;;;;;;;23.27;60.83;92437.47;5073772;28;20036;-77
2022/08/26 06:29:20;;;;;;;9.18;3.50;;;;;;;24.27;57.17;92450.91;5073889;28;20044;-77
2022/08/26 06:31:45;;;;;;;7.88;3.45;;;;;;;25.16;54.79;92455.19;5073862;28;20033;-77
2022/08/26 06:34:12;;;;;;;6.93;3.38;;;;;;;26.07;53.71;92445.00;5072796;28;20036;-77
2022/08/26 06:36:40;;;;;;;14.32;3.95;;;;;;;26.94;52.01;92453.69;5073847;28;20135;-77
2022/08/26 06:39:08;;;;;;;13.20;3.65;;;;;;;27.57;49.45;92459.16;5072235;28;20148;-76
2022/08/26 06:41:52;;;;;;;9.25;3.65;;;;;;;27.59;48.06;92452.25;5073844;28;20037;-76
2022/08/26 06:44:56;;;;;;;7.28;3.97;;;;;;;27.46;45.94;92453.84;5073929;28;20085;-77
2022/08/26 06:47:21;;;;;;;7.80;3.88;;;;;;;27.27;47.67;92457.00;5073662;28;20470;-76
2022/08/26 06:49:47;;;;;;;9.00;4.30;;;;;;;27.72;48.26;92457.94;5073622;28;20035;-77
2022/08/26 06:52:12;;;;;;;6.82;3.83;;;;;;;27.48;47.90;92464.97;5072357;28;20098;-78
2022/08/26 06:54:41;;;;;;;10.32;4.22;;;;;;;27.44;47.46;92466.16;5071734;28;20048;-77
2022/08/26 06:57:08;;;;;;;6.40;3.90;;;;;;;28.06;47.53;92457.31;5072517;28;20079;-77
2022/08/26 06:59:35;;;;;;;9.85;4.13;;;;;;;28.17;46.69;92457.25;5073505;28;20025;-77
2022/08/26 07:02:01;;;;;;;7.50;3.78;;;;;;;27.81;45.30;92452.09;5072192;28;20124;-78
2022/08/26 07:04:27;;;;;;;9.38;3.92;;;;;;;27.44;46.21;92455.41;5071975;28;20033;-78
2022/08/26 07:10:46;;;;;;;7.88;4.22;;;;;;;26.85;47.01;92447.97;5073045;28;20031;-77
2022/08/26 07:13:13;;;;;;;8.02;4.32;;;;;;;27.16;46.81;92449.00;5072056;28;20040;-77
2022/08/26 07:15:40;;;;;;;12.07;4.40;;;;;;;27.36;46.45;92452.75;5055343;28;20028;-77
2022/08/26 07:18:07;;;;;;;7.03;4.32;;;;;;;27.46;45.77;92448.47;5072039;28;20032;-77
2022/08/26 07:20:42;;;;;;;13.32;4.88;;;;;;;27.36;44.88;92444.69;5072683;28;20553;-77
2022/08/26 07:23:10;;;;;;;8.80;4.13;;;;;;;27.56;45.68;92450.34;5071508;28;20086;-77
2022/08/26 07:25:41;;;;;;;9.07;4.70;;;;;;;27.74;43.13;92444.06;5071522;28;20056;-77
2022/08/26 07:28:07;;;;;;;11.13;4.68;;;;;;;27.95;43.07;92440.50;5072739;28;20514;-76
2022/08/26 07:30:38;;;;;;;8.15;4.63;;;;;;;27.77;46.16;92440.59;5071984;28;20047;-78
2022/08/26 07:33:03;;;;;;;6.93;4.85;;;;;;;27.38;48.61;92438.91;5071774;28;20066;-78
2022/08/26 07:35:29;;;;;;;9.13;4.88;;;;;;;26.71;50.67;92436.13;5072874;28;20028;-76
2022/08/26 07:37:54;;;;;;;8.82;4.90;;;;;;;25.99;53.16;92429.34;5071070;28;20126;-78
2022/08/26 07:40:20;;;;;;;16.52;5.75;;;;;;;25.19;54.78;92435.72;5071089;28;20051;-78
2022/08/26 07:42:46;;;;;;;10.77;5.30;;;;;;;25.07;56.22;92434.88;5072387;28;20086;-78
2022/08/26 07:45:12;;;;;;;12.18;5.40;;;;;;;25.09;54.90;92431.84;5071234;28;20040;-78
2022/08/26 07:47:38;;;;;;;11.10;4.90;;;;;;;24.99;54.29;92438.66;5072154;28;20056;-78
2022/08/26 07:50:03;;;;;;;13.13;5.65;;;;;;;24.78;54.69;92430.56;5071733;28;20027;-78
2022/08/26 07:52:29;;;;;;;10.85;5.15;;;;;;;24.69;54.74;92431.66;5053492;28;20044;-78
2022/08/26 07:54:57;;;;;;;8.65;4.80;;;;;;;24.77;55.44;92429.03;5071593;28;20459;-78
2022/08/26 07:57:23;;;;;;;12.07;5.68;;;;;;;24.79;57.27;92426.75;5070446;28;20403;-77
2022/08/26 07:59:49;;;;;;;9.18;5.10;;;;;;;24.84;55.74;92431.75;5053380;28;20041;-78
2022/08/26 08:02:14;;;;;;;11.98;4.80;;;;;;;25.22;53.29;92422.34;5070482;28;20085;-78
2022/08/26 08:04:40;;;;;;;13.23;5.70;;;;;;;25.54;53.86;92416.25;5070418;28;20020;-78
2022/08/26 08:07:05;;;;;;;12.73;4.72;;;;;;;25.77;54.24;92415.88;5073405;28;20162;-78
2022/08/26 08:09:31;;;;;;;10.98;4.82;;;;;;;26.02;52.04;92425.88;5074811;28;20082;-78
2022/08/26 08:11:57;;;;;;;7.82;4.90;;;;;;;26.42;50.37;92418.53;5075793;28;20486;-78
2022/08/26 08:14:22;;;;;;;8.70;5.30;;;;;;;26.59;49.77;92420.41;5075472;28;20044;-78
2022/08/26 08:16:48;;;;;;;9.57;4.35;;;;;;;26.26;52.39;92422.41;5075579;28;20032;-78
2022/08/26 08:19:14;;;;;;;14.45;5.00;;;;;;;26.26;51.99;92424.31;5075236;28;20111;-78
2022/08/26 08:21:40;;;;;;;9.38;5.55;;;;;;;26.15;51.92;92417.03;5073605;28;20036;-77
2022/08/26 08:24:06;;;;;;;16.15;6.80;;;;;;;26.17;51.75;92419.34;5073269;28;20670;-77
2022/08/26 08:26:33;;;;;;;14.93;5.78;;;;;;;26.22;50.94;92424.31;5073312;28;20041;-77
2022/08/26 08:28:59;;;;;;;11.27;5.22;;;;;;;25.96;52.07;92417.44;5073773;28;20501;-77
2022/08/26 08:31:28;;;;;;;9.40;6.05;;;;;;;25.61;51.66;92423.53;5057066;28;20040;-77
2022/08/26 08:33:54;;;;;;;9.02;4.90;;;;;;;25.82;52.32;92422.78;5075049;28;20072;-78
2022/08/26 08:36:19;;;;;;;8.82;5.07;;;;;;;25.85;51.08;92424.69;5073738;28;20441;-77
2022/08/26 08:38:45;;;;;;;9.68;4.88;;;;;;;26.08;50.76;92418.97;5073163;28;20444;-77
2022/08/26 08:41:43;;;;;;;9.35;5.40;;;;;;;26.02;51.56;92415.91;5075310;28;20127;-77
2022/08/26 08:44:23;;;;;;;8.20;4.70;;;;;;;26.33;50.12;92422.38;5030433;28;20048;-77
2022/08/26 08:46:53;;;;;;;9.85;5.38;;;;;;;26.24;52.34;92422.00;5074488;28;20130;-77
2022/08/26 08:49:19;;;;;;;9.18;4.90;;;;;;;26.20;50.06;92417.81;5074695;28;20020;-77
2022/08/26 08:51:53;;;;;;;9.45;5.20;;;;;;;26.13;51.39;92415.91;5056821;28;20134;-77
2022/08/26 08:54:19;;;;;;;7.70;4.60;;;;;;;26.24;50.31;92427.38;5075160;28;20486;-77
2022/08/26 08:56:57;;;;;;;13.48;5.72;;;;;;;26.09;48.96;92423.94;5073757;28;20040;-77
2022/08/26 08:59:26;;;;;;;7.82;5.00;;;;;;;26.27;48.86;92423.16;5073468;28;20036;-77
2022/08/26 09:02:02;;;;;;;12.90;5.20;;;;;;;26.21;49.07;92428.16;5074657;28;20496;-77
2022/08/26 09:04:27;;;;;;;8.13;5.15;;;;;;;26.15;50.75;92424.34;5073576;28;20036;-77
2022/08/26 09:06:58;;;;;;;9.95;5.07;;;;;;;25.77;51.82;92413.22;5056992;28;20500;-77
2022/08/26 09:09:36;;;;;;;14.73;5.57;;;;;;;25.76;51.54;92423.16;5073642;28;20451;-77
2022/08/26 09:12:03;;;;;;;8.85;5.28;;;;;;;25.89;48.86;92423.56;5073126;28;20094;-77
2022/08/26 09:14:30;;;;;;;10.32;5.18;;;;;;;25.79;50.38;92418.97;5074266;28;20393;-77
2022/08/26 09:17:23;;;;;;;10.68;5.22;;;;;;;26.04;50.42;92418.22;5073301;28;20436;-77
2022/08/26 09:19:53;;;;;;;13.95;5.03;;;;;;;26.21;51.43;92417.44;5073015;28;20505;-77
2022/08/26 09:22:35;;;;;;;9.55;5.53;;;;;;;26.32;47.81;92426.22;5073112;28;20047;-78
2022/08/26 09:25:03;;;;;;;13.15;5.20;;;;;;;26.47;49.95;92415.47;5073897;28;20422;-77
2022/08/26 09:27:45;;;;;;;8.18;5.13;;;;;;;26.30;51.12;92415.13;5056089;28;20032;-77
2022/08/26 09:30:14;;;;;;;10.38;5.10;;;;;;;26.03;51.29;92416.66;5073144;28;20402;-77
2022/08/26 09:32:41;;;;;;;8.82;5.57;;;;;;;25.42;51.03;92405.91;5074260;28;20055;-77
2022/08/26 09:35:34;;;;;;;9.95;5.00;;;;;;;25.44;53.26;92404.38;5074047;28;20024;-77
2022/08/26 09:38:05;;;;;;;9.20;5.20;;;;;;;25.47;52.74;92408.97;5073586;28;20442;-77
2022/08/26 09:40:33;;;;;;;9.60;5.53;;;;;;;25.52;52.72;92405.91;5072602;28;20041;-77
2022/08/26 09:43:06;;;;;;;8.32;5.47;;;;;;;25.67;53.61;92397.88;5072523;28;20028;-77
2022/08/26 09:45:36;;;;;;;7.18;5.18;;;;;;;25.89;51.31;92406.72;5073768;28;20033;-77
2022/08/26 09:48:02;;;;;;;10.13;5.43;;;;;;;26.06;51.58;92397.91;5055575;28;20520;-77
2022/08/26 09:50:36;;;;;;;10.48;5.47;;;;;;;25.99;51.50;92391.78;5072454;28;20024;-78
2022/08/26 09:53:10;;;;;;;8.68;5.28;;;;;;;26.32;50.88;92401.28;5069129;28;20122;-81
2022/08/26 09:55:40;;;;;;;13.77;5.30;;;;;;;26.49;49.98;92397.81;5068830;28;20032;-79
2022/08/26 09:58:12;;;;;;;8.27;4.72;;;;;;;26.85;48.92;92394.28;5045979;28;20045;-79
2022/08/26 10:00:51;;;;;;;;;;;;;;;26.88;48.04;92388.09;5059167;28;20041;-79
2022/08/26 10:03:27;;;;;;;8.23;4.90;;;;;;;27.16;48.67;92392.59;5073136;28;20392;-80
2022/08/26 10:06:05;;;;;;;9.65;5.63;;;;;;;27.03;47.39;92388.81;5073937;28;20082;-78
2022/08/26 10:08:36;;;;;;;13.88;5.40;;;;;;;26.92;48.40;92386.94;5073555;28;20097;-77
2022/08/26 10:11:10;;;;;;;11.23;5.53;;;;;;;27.14;47.69;92384.16;5071587;28;20033;-77
2022/08/26 10:13:42;;;;;;;9.30;5.38;;;;;;;27.30;48.30;92381.78;5051360;28;20056;-77
2022/08/26 10:16:18;;;;;;;8.10;5.20;;;;;;;27.62;46.54;92370.78;5064056;28;20055;-80
2022/08/26 10:18:50;;;;;;;8.55;4.93;;;;;;;28.13;46.37;92378.47;5063895;28;20037;-80
2022/08/26 10:21:24;;;;;;;12.27;5.55;;;;;;;28.49;45.15;92380.84;5058042;28;20043;-83
2022/08/26 10:23:54;;;;;;;8.68;5.00;;;;;;;27.89;45.14;92372.91;5045462;28;20056;-81
2022/08/26 10:26:24;;;;;;;10.32;5.03;;;;;;;27.67;44.01;92371.53;5074354;28;20025;-81
2022/08/26 10:28:55;;;;;;;7.60;4.80;;;;;;;28.08;45.47;92374.28;5083081;28;20066;-81
2022/08/26 10:31:38;;;;;;;6.45;4.50;;;;;;;28.39;44.29;92377.84;5078221;28;20028;-80
2022/08/26 10:34:03;;;;;;;7.05;4.75;;;;;;;28.38;45.43;92381.69;5076586;28;20040;-81
2022/08/26 10:36:48;;;;;;;8.10;4.70;;;;;;;28.31;43.50;92378.31;5065042;28;20033;-81
2022/08/26 10:39:29;;;;;;;7.65;5.05;;;;;;;28.05;44.57;92377.00;5077797;28;20053;-83
2022/08/26 10:42:14;;;;;;;8.07;5.10;;;;;;;27.40;43.87;92377.47;5064668;28;20181;-79
2022/08/26 10:44:43;;;;;;;7.53;5.00;;;;;;;27.43;44.84;92390.16;5068142;28;20040;-81
2022/08/26 10:47:19;;;;;;;10.35;5.30;;;;;;;27.62;45.97;92378.84;5076485;28;20112;-80
2022/08/26 10:49:46;;;;;;;9.15;5.05;;;;;;;27.58;44.04;92375.44;5104357;28;20040;-80
2022/08/26 10:52:17;;;;;;;8.90;4.90;;;;;;;27.74;43.68;92358.03;5080989;28;20047;-81
2022/08/26 10:54:52;;;;;;;10.53;5.23;;;;;;;28.30;41.87;92369.44;5090435;28;20055;-81
2022/08/26 10:57:28;;;;;;;10.48;4.90;;;;;;;28.19;43.78;92363.41;5083514;28;20280;-80
2022/08/26 11:03:14;;;;;;;12.18;4.65;;;;;;;27.99;41.56;92364.00;5053841;28;20108;-79
2022/08/26 11:05:40;;;;;;;7.18;4.85;;;;;;;28.28;41.88;92360.25;5083823;28;20033;-81
2022/08/26 11:08:18;;;;;;;7.82;4.60;;;;;;;28.45;41.41;92354.66;5087611;28;20529;-80
2022/08/26 11:10:57;;;;;;;8.27;4.95;;;;;;;28.75;42.89;92355.88;5087049;28;20158;-81
2022/08/26 11:14:00;;;;;;;6.90;4.55;;;;;;;28.44;42.43;92353.16;5084632;28;20032;-83
2022/08/26 11:17:03;;;;;;;7.82;4.50;;;;;;;28.60;41.09;92349.19;5007449;28;20172;-80
2022/08/26 11:19:29;;;;;;;13.43;4.65;;;;;;;28.41;41.78;92345.13;5061735;28;20098;-80
2022/08/26 11:22:04;;;;;;;10.60;4.55;;;;;;;28.40;41.85;92347.03;5083857;28;20028;-80
2022/08/26 11:24:52;;;;;;;10.18;4.50;;;;;;;27.81;43.49;92347.22;5083929;28;20041;-80
2022/08/26 11:27:36;;;;;;;8.35;4.78;;;;;;;27.70;43.53;92341.19;5082902;28;20054;-80
2022/08/26 11:30:11;;;;;;;8.50;4.40;;;;;;;27.54;44.02;92334.38;5084553;28;20025;-83
2022/08/26 11:32:37;;;;;;;8.60;4.97;;;;;;;27.69;43.22;92336.94;5080369;28;20087;-80
2022/08/26 11:35:31;;;;;;;7.43;5.05;;;;;;;27.88;45.62;92333.75;5082073;28;20390;-79
2022/08/26 11:38:01;;;;;;;8.77;4.80;;;;;;;27.74;44.29;92323.84;5066148;28;20052;-79
2022/08/26 11:40:32;;;;;;;8.20;5.15;;;;;;;27.87;44.74;92326.81;5077514;28;20120;-80
2022/08/26 11:43:24;;;;;;;8.07;4.28;;;;;;;28.15;43.35;92330.41;5059041;28;20037;-80
2022/08/26 11:46:02;;;;;;;;;;;;;;;28.56;40.92;92324.97;5051768;28;20071;-80
2022/08/26 11:48:35;;;;;;;9.05;4.85;;;;;;;28.52;41.50;92326.19;5057601;28;19922;-81
2022/08/26 11:51:08;;;;;;;10.35;4.65;;;;;;;28.59;42.67;92323.41;5078877;28;20089;-80
2022/08/26 11:53:37;;;;;;;8.57;4.70;;;;;;;28.18;43.46;92322.28;5076580;28;20028;-81
2022/08/26 11:56:16;;;;;;;10.63;4.63;;;;;;;28.38;44.54;92322.47;5084704;28;20622;-82
2022/08/26 11:58:46;;;;;;;6.57;4.50;;;;;;;28.79;44.47;92316.22;5078911;28;20095;-81
2022/08/26 12:01:25;;;;;;;14.35;5.00;;;;;;;29.02;42.49;92320.94;5075565;28;20025;-82
2022/08/26 12:03:51;;;;;;;11.65;4.78;;;;;;;28.48;42.75;92320.06;5073951;28;20044;-82
2022/08/26 12:06:27;;;;;;;9.75;5.55;;;;;;;28.50;44.05;92315.81;5071100;28;20097;-79
2022/08/26 12:08:56;;;;;;;7.80;5.05;;;;;;;28.27;42.96;92319.13;5068334;28;20029;-79
2022/08/26 12:11:25;;;;;;;9.07;5.30;;;;;;;28.30;44.15;92315.63;5066962;28;20119;-79
2022/08/26 12:13:57;;;;;;;9.93;5.13;;;;;;;28.24;44.48;92311.88;5065966;28;20060;-79
2022/08/26 12:16:24;;;;;;;;;;;;;;;28.18;44.87;92314.22;5068265;28;20037;-79
2022/08/26 12:18:50;;;;;;;8.15;5.80;;;;;;;28.13;45.45;92309.28;5088694;28;19917;-79
2022/08/26 12:21:21;;;;;;;10.02;4.72;;;;;;;28.35;45.57;92312.50;5069633;28;20044;-79
2022/08/26 12:23:58;;;;;;;11.48;5.63;;;;;;;28.55;45.49;92306.53;5059546;28;20033;-79
2022/08/26 12:26:29;;;;;;;8.65;5.30;;;;;;;28.50;45.51;92310.41;5072190;28;20029;-79
2022/08/26 12:29:01;;;;;;;10.73;5.40;;;;;;;28.36;45.67;92316.72;5060284;28;20027;-79
2022/08/26 12:31:40;;;;;;;7.22;5.05;;;;;;;28.12;45.89;92304.28;5068449;28;20039;-80
2022/08/26 12:34:14;;;;;;;7.57;5.00;;;;;;;28.11;45.06;92306.22;5071714;28;20040;-79
2022/08/26 12:36:52;;;;;;;10.48;5.50;;;;;;;27.93;46.60;92301.03;5072267;28;20106;-79
2022/08/26 12:39:32;;;;;;;14.05;6.07;;;;;;;27.66;47.00;92297.41;5071922;28;20083;-79
2022/08/26 12:42:00;;;;;;;10.45;5.53;;;;;;;27.70;46.52;92296.22;5067324;28;20136;-79
2022/08/26 12:44:32;;;;;;;7.25;5.07;;;;;;;27.55;46.82;92294.81;5057203;28;20058;-79
2022/08/26 12:47:07;;;;;;;11.57;5.40;;;;;;;27.51;46.71;92294.84;5060978;28;20037;-79
2022/08/26 12:49:35;;;;;;;8.52;5.05;;;;;;;27.51;46.12;92291.41;5055734;28;20040;-79
2022/08/26 12:52:03;;;;;;;7.68;4.90;;;;;;;27.64;46.91;92292.44;5056723;28;20471;-79
2022/08/26 12:54:57;;;;;;;12.45;5.15;;;;;;;27.85;45.49;92286.13;5060243;28;20506;-80
2022/08/26 12:57:15;;;;;;;13.55;5.90;;;;;;;27.96;45.41;92289.47;5076521;28;20062;-79
2022/08/26 12:59:40;;;;;;;9.05;5.10;;;;;;;28.02;45.37;92279.78;5074667;28;20086;-79
2022/08/26 13:02:06;;;;;;;9.70;5.07;;;;;;;27.81;44.99;92274.63;5062277;28;20032;-80
2022/08/26 13:04:38;;;;;;;11.40;5.18;;;;;;;27.75;45.97;92270.84;5065775;28;20547;-79
2022/08/26 13:07:25;;;;;;;8.95;5.35;;;;;;;27.68;46.13;92274.34;5076451;28;20028;-79
2022/08/26 13:09:56;;;;;;;8.13;5.05;;;;;;;27.26;47.88;92268.16;5063333;28;20032;-78